sensor_id;sensor_type;location;lat;lon;timestamp;pressure;altitude;pressure_sealevel;temperature
35582;BMP180;21687;48.900;9.188;2023-04-01T00:01:09;97056.00;;;7.40
35582;BMP180;21687;48.900;9.188;2023-04-01T00:03:36;97054.00;;;7.40
35582;BMP180;21687;48.900;9.188;2023-04-01T00:06:03;97061.00;;;7.40
35582;BMP180;21687;48.900;9.188;2023-04-01T00:08:29;97065.00;;;7.40
35582;BMP180;21687;48.900;9.188;2023-04-01T00:10:56;97057.00;;;7.40
35582;BMP180;21687;48.900;9.188;2023-04-01T00:13:24;97062.00;;;7.30
35582;BMP180;21687;48.900;9.188;2023-04-01T00:15:52;97061.00;;;7.40
35582;BMP180;21687;48.900;9.188;2023-04-01T00:18:18;97061.00;;;7.40
35582;BMP180;21687;48.900;9.188;2023-04-01T00:20:48;97056.00;;;7.50
35582;BMP180;21687;48.900;9.188;2023-04-01T00:23:17;97062.00;;;7.50
35582;BMP180;21687;48.900;9.188;2023-04-01T00:25:44;97081.00;;;7.50
35582;BMP180;21687;48.900;9.188;2023-04-01T00:28:11;97072.00;;;7.60
35582;BMP180;21687;48.900;9.188;2023-04-01T00:30:38;97074.00;;;7.60
35582;BMP180;21687;48.900;9.188;2023-04-01T00:33:04;97072.00;;;7.60
35582;BMP180;21687;48.900;9.188;2023-04-01T00:35:31;97070.00;;;7.60
35582;BMP180;21687;48.900;9.188;2023-04-01T00:37:58;97059.00;;;7.60
35582;BMP180;21687;48.900;9.188;2023-04-01T00:40:36;97070.00;;;7.70
35582;BMP180;21687;48.900;9.188;2023-04-01T00:43:09;97060.00;;;7.50
35582;BMP180;21687;48.900;9.188;2023-04-01T00:45:41;97066.00;;;7.50
35582;BMP180;21687;48.900;9.188;2023-04-01T00:48:15;97074.00;;;7.50
35582;BMP180;21687;48.900;9.188;2023-04-01T00:50:46;97079.00;;;7.60
35582;BMP180;21687;48.900;9.188;2023-04-01T00:53:14;97073.00;;;7.70
35582;BMP180;21687;48.900;9.188;2023-04-01T00:55:46;97064.00;;;7.70
35582;BMP180;21687;48.900;9.188;2023-04-01T00:58:16;97058.00;;;7.70
35582;BMP180;21687;48.900;9.188;2023-04-01T01:00:45;97064.00;;;7.80
35582;BMP180;21687;48.900;9.188;2023-04-01T01:03:12;97057.00;;;7.80
35582;BMP180;21687;48.900;9.188;2023-04-01T01:14:19;97064.00;;;8.00
35582;BMP180;21687;48.900;9.188;2023-04-01T01:16:55;97064.00;;;8.00
35582;BMP180;21687;48.900;9.188;2023-04-01T01:31:24;97057.00;;;8.00
35582;BMP180;21687;48.900;9.188;2023-04-01T01:36:32;97069.00;;;8.00
35582;BMP180;21687;48.900;9.188;2023-04-01T01:39:06;97065.00;;;8.00
35582;BMP180;21687;48.900;9.188;2023-04-01T01:41:35;97074.00;;;8.10
35582;BMP180;21687;48.900;9.188;2023-04-01T01:44:04;97061.00;;;8.10
35582;BMP180;21687;48.900;9.188;2023-04-01T01:46:32;97055.00;;;8.10
35582;BMP180;21687;48.900;9.188;2023-04-01T01:49:00;97065.00;;;8.10
35582;BMP180;21687;48.900;9.188;2023-04-01T01:51:28;97070.00;;;8.10
35582;BMP180;21687;48.900;9.188;2023-04-01T01:53:54;97063.00;;;8.10
35582;BMP180;21687;48.900;9.188;2023-04-01T01:56:25;97068.00;;;8.20
35582;BMP180;21687;48.900;9.188;2023-04-01T01:59:04;97074.00;;;8.20
35582;BMP180;21687;48.900;9.188;2023-04-01T02:01:34;97069.00;;;8.00
35582;BMP180;21687;48.900;9.188;2023-04-01T02:04:03;97069.00;;;8.00
35582;BMP180;21687;48.900;9.188;2023-04-01T02:06:34;97080.00;;;7.80
35582;BMP180;21687;48.900;9.188;2023-04-01T02:09:05;97063.00;;;7.70
35582;BMP180;21687;48.900;9.188;2023-04-01T02:14:11;97058.00;;;7.40
35582;BMP180;21687;48.900;9.188;2023-04-01T02:16:46;97067.00;;;7.30
35582;BMP180;21687;48.900;9.188;2023-04-01T02:19:15;97079.00;;;7.30
35582;BMP180;21687;48.900;9.188;2023-04-01T02:21:56;97069.00;;;7.30
35582;BMP180;21687;48.900;9.188;2023-04-01T02:24:24;97060.00;;;7.20
35582;BMP180;21687;48.900;9.188;2023-04-01T02:26:52;97048.00;;;7.20
35582;BMP180;21687;48.900;9.188;2023-04-01T02:29:21;97065.00;;;7.10
35582;BMP180;21687;48.900;9.188;2023-04-01T02:31:49;97067.00;;;7.10
35582;BMP180;21687;48.900;9.188;2023-04-01T02:34:16;97060.00;;;7.10
35582;BMP180;21687;48.900;9.188;2023-04-01T02:36:43;97055.00;;;7.10
35582;BMP180;21687;48.900;9.188;2023-04-01T02:39:10;97059.00;;;7.10
35582;BMP180;21687;48.900;9.188;2023-04-01T02:41:41;97057.00;;;7.10
35582;BMP180;21687;48.900;9.188;2023-04-01T02:44:09;97064.00;;;7.10
35582;BMP180;21687;48.900;9.188;2023-04-01T02:46:36;97069.00;;;7.00
35582;BMP180;21687;48.900;9.188;2023-04-01T02:49:03;97068.00;;;7.10
35582;BMP180;21687;48.900;9.188;2023-04-01T02:51:29;97071.00;;;7.10
35582;BMP180;21687;48.900;9.188;2023-04-01T02:53:56;97071.00;;;7.10
35582;BMP180;21687;48.900;9.188;2023-04-01T02:56:22;97067.00;;;7.20
35582;BMP180;21687;48.900;9.188;2023-04-01T02:58:48;97074.00;;;7.10
35582;BMP180;21687;48.900;9.188;2023-04-01T03:01:15;97076.00;;;7.10
35582;BMP180;21687;48.900;9.188;2023-04-01T03:03:41;97072.00;;;7.20
35582;BMP180;21687;48.900;9.188;2023-04-01T03:06:13;97064.00;;;7.10
35582;BMP180;21687;48.900;9.188;2023-04-01T03:08:39;97064.00;;;7.00
35582;BMP180;21687;48.900;9.188;2023-04-01T03:11:06;97071.00;;;7.00
35582;BMP180;21687;48.900;9.188;2023-04-01T03:13:32;97068.00;;;6.90
35582;BMP180;21687;48.900;9.188;2023-04-01T03:15:58;97060.00;;;6.90
35582;BMP180;21687;48.900;9.188;2023-04-01T03:18:25;97068.00;;;6.90
35582;BMP180;21687;48.900;9.188;2023-04-01T03:20:51;97067.00;;;7.00
35582;BMP180;21687;48.900;9.188;2023-04-01T03:23:17;97062.00;;;6.90
35582;BMP180;21687;48.900;9.188;2023-04-01T03:25:45;97066.00;;;6.80
35582;BMP180;21687;48.900;9.188;2023-04-01T03:28:12;97069.00;;;6.80
35582;BMP180;21687;48.900;9.188;2023-04-01T03:30:39;97071.00;;;6.80
35582;BMP180;21687;48.900;9.188;2023-04-01T03:33:09;97063.00;;;6.90
35582;BMP180;21687;48.900;9.188;2023-04-01T03:35:35;97064.00;;;6.90
35582;BMP180;21687;48.900;9.188;2023-04-01T03:38:02;97051.00;;;6.80
35582;BMP180;21687;48.900;9.188;2023-04-01T03:40:28;97064.00;;;6.80
35582;BMP180;21687;48.900;9.188;2023-04-01T03:42:54;97054.00;;;6.60
35582;BMP180;21687;48.900;9.188;2023-04-01T03:45:22;97057.00;;;6.60
35582;BMP180;21687;48.900;9.188;2023-04-01T03:47:48;97048.00;;;6.50
35582;BMP180;21687;48.900;9.188;2023-04-01T03:50:14;97069.00;;;6.40
35582;BMP180;21687;48.900;9.188;2023-04-01T03:52:41;97055.00;;;6.40
35582;BMP180;21687;48.900;9.188;2023-04-01T03:55:07;97058.00;;;6.40
35582;BMP180;21687;48.900;9.188;2023-04-01T03:57:33;97056.00;;;6.60
35582;BMP180;21687;48.900;9.188;2023-04-01T04:00:00;97049.00;;;6.60
35582;BMP180;21687;48.900;9.188;2023-04-01T04:02:26;97050.00;;;6.50
35582;BMP180;21687;48.900;9.188;2023-04-01T04:04:52;97049.00;;;6.50
35582;BMP180;21687;48.900;9.188;2023-04-01T04:07:18;97024.00;;;6.50
35582;BMP180;21687;48.900;9.188;2023-04-01T04:09:44;97041.00;;;6.40
35582;BMP180;21687;48.900;9.188;2023-04-01T04:12:11;97030.00;;;6.50
35582;BMP180;21687;48.900;9.188;2023-04-01T04:14:37;97033.00;;;6.40
35582;BMP180;21687;48.900;9.188;2023-04-01T04:17:03;97039.00;;;6.50
35582;BMP180;21687;48.900;9.188;2023-04-01T04:19:32;97039.00;;;6.50
35582;BMP180;21687;48.900;9.188;2023-04-01T04:21:59;97025.00;;;6.60
35582;BMP180;21687;48.900;9.188;2023-04-01T04:24:27;97029.00;;;6.60
35582;BMP180;21687;48.900;9.188;2023-04-01T04:26:53;97036.00;;;6.70
35582;BMP180;21687;48.900;9.188;2023-04-01T04:29:19;97032.00;;;6.70
35582;BMP180;21687;48.900;9.188;2023-04-01T04:31:46;97021.00;;;6.80
35582;BMP180;21687;48.900;9.188;2023-04-01T04:34:12;97025.00;;;6.90
35582;BMP180;21687;48.900;9.188;2023-04-01T04:36:38;97032.00;;;6.90
35582;BMP180;21687;48.900;9.188;2023-04-01T04:39:04;97039.00;;;6.90
35582;BMP180;21687;48.900;9.188;2023-04-01T04:41:30;97040.00;;;7.00
35582;BMP180;21687;48.900;9.188;2023-04-01T04:43:57;97033.00;;;7.10
35582;BMP180;21687;48.900;9.188;2023-04-01T04:46:27;97033.00;;;7.10
35582;BMP180;21687;48.900;9.188;2023-04-01T04:48:56;97033.00;;;7.10
35582;BMP180;21687;48.900;9.188;2023-04-01T04:51:23;97026.00;;;7.00
35582;BMP180;21687;48.900;9.188;2023-04-01T04:53:50;97024.00;;;6.90
35582;BMP180;21687;48.900;9.188;2023-04-01T04:56:20;97030.00;;;6.90
35582;BMP180;21687;48.900;9.188;2023-04-01T04:58:47;97033.00;;;6.90
35582;BMP180;21687;48.900;9.188;2023-04-01T05:01:15;97025.00;;;6.90
35582;BMP180;21687;48.900;9.188;2023-04-01T05:03:42;97033.00;;;6.80
35582;BMP180;21687;48.900;9.188;2023-04-01T05:06:11;97034.00;;;6.80
35582;BMP180;21687;48.900;9.188;2023-04-01T05:08:39;97033.00;;;6.80
35582;BMP180;21687;48.900;9.188;2023-04-01T05:11:18;97029.00;;;6.80
35582;BMP180;21687;48.900;9.188;2023-04-01T05:13:45;97031.00;;;6.80
35582;BMP180;21687;48.900;9.188;2023-04-01T05:16:17;97027.00;;;6.80
35582;BMP180;21687;48.900;9.188;2023-04-01T05:18:44;97017.00;;;6.80
35582;BMP180;21687;48.900;9.188;2023-04-01T05:21:12;97018.00;;;6.80
35582;BMP180;21687;48.900;9.188;2023-04-01T05:23:39;97032.00;;;6.80
35582;BMP180;21687;48.900;9.188;2023-04-01T05:26:10;97026.00;;;6.80
35582;BMP180;21687;48.900;9.188;2023-04-01T05:28:37;97026.00;;;6.80
35582;BMP180;21687;48.900;9.188;2023-04-01T05:31:05;97028.00;;;6.90
35582;BMP180;21687;48.900;9.188;2023-04-01T05:33:32;97024.00;;;7.00
35582;BMP180;21687;48.900;9.188;2023-04-01T05:36:15;97022.00;;;7.10
35582;BMP180;21687;48.900;9.188;2023-04-01T05:38:42;97015.00;;;7.30
35582;BMP180;21687;48.900;9.188;2023-04-01T05:41:11;97014.00;;;7.30
35582;BMP180;21687;48.900;9.188;2023-04-01T05:43:39;97016.00;;;7.40
35582;BMP180;21687;48.900;9.188;2023-04-01T05:46:06;97011.00;;;7.50
35582;BMP180;21687;48.900;9.188;2023-04-01T05:48:33;96997.00;;;7.50
35582;BMP180;21687;48.900;9.188;2023-04-01T05:51:01;97004.00;;;7.60
35582;BMP180;21687;48.900;9.188;2023-04-01T05:53:27;97009.00;;;7.70
35582;BMP180;21687;48.900;9.188;2023-04-01T05:55:53;96996.00;;;7.80
35582;BMP180;21687;48.900;9.188;2023-04-01T05:58:19;96998.00;;;7.90
35582;BMP180;21687;48.900;9.188;2023-04-01T06:00:46;97001.00;;;8.00
35582;BMP180;21687;48.900;9.188;2023-04-01T06:03:12;97010.00;;;8.10
35582;BMP180;21687;48.900;9.188;2023-04-01T06:05:41;97005.00;;;8.20
35582;BMP180;21687;48.900;9.188;2023-04-01T06:08:15;97006.00;;;8.30
35582;BMP180;21687;48.900;9.188;2023-04-01T06:11:10;97015.00;;;8.30
35582;BMP180;21687;48.900;9.188;2023-04-01T06:13:52;97004.00;;;8.50
35582;BMP180;21687;48.900;9.188;2023-04-01T06:16:49;97009.00;;;8.60
35582;BMP180;21687;48.900;9.188;2023-04-01T06:22:26;97004.00;;;8.70
35582;BMP180;21687;48.900;9.188;2023-04-01T06:25:26;97012.00;;;8.80
35582;BMP180;21687;48.900;9.188;2023-04-01T06:33:36;97018.00;;;9.00
35582;BMP180;21687;48.900;9.188;2023-04-01T06:36:32;97009.00;;;9.00
35582;BMP180;21687;48.900;9.188;2023-04-01T06:50:49;97004.00;;;9.10
35582;BMP180;21687;48.900;9.188;2023-04-01T06:53:25;97020.00;;;9.10
35582;BMP180;21687;48.900;9.188;2023-04-01T06:56:00;97021.00;;;9.10
35582;BMP180;21687;48.900;9.188;2023-04-01T06:58:47;97011.00;;;9.00
35582;BMP180;21687;48.900;9.188;2023-04-01T07:01:26;97019.00;;;9.00
35582;BMP180;21687;48.900;9.188;2023-04-01T07:03:57;97021.00;;;9.00
35582;BMP180;21687;48.900;9.188;2023-04-01T07:06:32;97020.00;;;9.10
35582;BMP180;21687;48.900;9.188;2023-04-01T07:09:06;97010.00;;;9.20
35582;BMP180;21687;48.900;9.188;2023-04-01T07:11:37;97012.00;;;9.20
35582;BMP180;21687;48.900;9.188;2023-04-01T07:14:17;97018.00;;;9.30
35582;BMP180;21687;48.900;9.188;2023-04-01T07:16:51;97030.00;;;9.30
35582;BMP180;21687;48.900;9.188;2023-04-01T07:19:53;97031.00;;;9.30
35582;BMP180;21687;48.900;9.188;2023-04-01T07:22:31;97029.00;;;9.40
35582;BMP180;21687;48.900;9.188;2023-04-01T07:25:07;97030.00;;;9.30
35582;BMP180;21687;48.900;9.188;2023-04-01T07:27:37;97038.00;;;9.30
35582;BMP180;21687;48.900;9.188;2023-04-01T07:30:15;97029.00;;;9.30
35582;BMP180;21687;48.900;9.188;2023-04-01T07:32:47;97041.00;;;9.30
35582;BMP180;21687;48.900;9.188;2023-04-01T07:38:06;97024.00;;;9.20
35582;BMP180;21687;48.900;9.188;2023-04-01T07:46:21;97044.00;;;9.30
35582;BMP180;21687;48.900;9.188;2023-04-01T07:49:07;97042.00;;;9.30
35582;BMP180;21687;48.900;9.188;2023-04-01T07:54:35;97051.00;;;9.40
35582;BMP180;21687;48.900;9.188;2023-04-01T07:57:27;97048.00;;;9.50
35582;BMP180;21687;48.900;9.188;2023-04-01T08:08:34;97049.00;;;9.70
35582;BMP180;21687;48.900;9.188;2023-04-01T08:11:38;97053.00;;;9.70
35582;BMP180;21687;48.900;9.188;2023-04-01T08:14:51;97046.00;;;9.70
35582;BMP180;21687;48.900;9.188;2023-04-01T08:17:08;97049.00;;;9.80
35582;BMP180;21687;48.900;9.188;2023-04-01T08:22:19;97046.00;;;9.80
35582;BMP180;21687;48.900;9.188;2023-04-01T08:24:49;97049.00;;;9.90
35582;BMP180;21687;48.900;9.188;2023-04-01T08:27:22;97052.00;;;10.00
35582;BMP180;21687;48.900;9.188;2023-04-01T08:32:28;97041.00;;;9.80
35582;BMP180;21687;48.900;9.188;2023-04-01T08:35:25;97054.00;;;9.90
35582;BMP180;21687;48.900;9.188;2023-04-01T08:37:55;97064.00;;;9.90
35582;BMP180;21687;48.900;9.188;2023-04-01T08:40:58;97070.00;;;9.60
35582;BMP180;21687;48.900;9.188;2023-04-01T08:46:34;97070.00;;;8.90
35582;BMP180;21687;48.900;9.188;2023-04-01T08:58:03;97063.00;;;8.30
35582;BMP180;21687;48.900;9.188;2023-04-01T09:00:46;97053.00;;;8.30
35582;BMP180;21687;48.900;9.188;2023-04-01T09:03:40;97060.00;;;8.30
35582;BMP180;21687;48.900;9.188;2023-04-01T09:06:31;97054.00;;;8.30
35582;BMP180;21687;48.900;9.188;2023-04-01T09:27:03;97063.00;;;9.20
35582;BMP180;21687;48.900;9.188;2023-04-01T09:34:54;97066.00;;;9.80
35582;BMP180;21687;48.900;9.188;2023-04-01T09:57:30;97082.00;;;9.70
35582;BMP180;21687;48.900;9.188;2023-04-01T10:05:55;97088.00;;;9.70
35582;BMP180;21687;48.900;9.188;2023-04-01T10:20:38;97078.00;;;9.80
35582;BMP180;21687;48.900;9.188;2023-04-01T10:29:46;97082.00;;;9.90
35582;BMP180;21687;48.900;9.188;2023-04-01T10:49:25;97079.00;;;9.90
35582;BMP180;21687;48.900;9.188;2023-04-01T10:52:12;97084.00;;;9.90
35582;BMP180;21687;48.900;9.188;2023-04-01T10:58:01;97084.00;;;9.80
35582;BMP180;21687;48.900;9.188;2023-04-01T11:01:04;97095.00;;;9.80
35582;BMP180;21687;48.900;9.188;2023-04-01T11:15:00;97078.00;;;10.30
35582;BMP180;21687;48.900;9.188;2023-04-01T11:26:37;97088.00;;;10.30
35582;BMP180;21687;48.900;9.188;2023-04-01T11:46:17;97097.00;;;10.60
35582;BMP180;21687;48.900;9.188;2023-04-01T11:51:43;97109.00;;;10.70
35582;BMP180;21687;48.900;9.188;2023-04-01T12:03:26;97125.00;;;10.70
35582;BMP180;21687;48.900;9.188;2023-04-01T12:06:07;97118.00;;;10.70
35582;BMP180;21687;48.900;9.188;2023-04-01T12:08:53;97128.00;;;10.60
35582;BMP180;21687;48.900;9.188;2023-04-01T12:11:26;97128.00;;;10.60
35582;BMP180;21687;48.900;9.188;2023-04-01T12:14:05;97118.00;;;10.80
35582;BMP180;21687;48.900;9.188;2023-04-01T12:25:07;97131.00;;;11.00
35582;BMP180;21687;48.900;9.188;2023-04-01T12:31:02;97136.00;;;11.00
35582;BMP180;21687;48.900;9.188;2023-04-01T12:42:10;97133.00;;;11.20
35582;BMP180;21687;48.900;9.188;2023-04-01T12:44:55;97145.00;;;11.30
35582;BMP180;21687;48.900;9.188;2023-04-01T12:55:45;97146.00;;;11.00
35582;BMP180;21687;48.900;9.188;2023-04-01T12:58:22;97145.00;;;10.90
35582;BMP180;21687;48.900;9.188;2023-04-01T13:07:15;97141.00;;;10.50
35582;BMP180;21687;48.900;9.188;2023-04-01T13:21:23;97167.00;;;9.50
35582;BMP180;21687;48.900;9.188;2023-04-01T13:24:12;97168.00;;;9.10
35582;BMP180;21687;48.900;9.188;2023-04-01T13:26:55;97162.00;;;8.90
35582;BMP180;21687;48.900;9.188;2023-04-01T13:29:25;97178.00;;;8.90
35582;BMP180;21687;48.900;9.188;2023-04-01T13:32:27;97187.00;;;8.90
35582;BMP180;21687;48.900;9.188;2023-04-01T13:41:19;97168.00;;;9.00
35582;BMP180;21687;48.900;9.188;2023-04-01T13:44:00;97183.00;;;9.10
35582;BMP180;21687;48.900;9.188;2023-04-01T13:46:50;97178.00;;;9.30
35582;BMP180;21687;48.900;9.188;2023-04-01T13:58:31;97189.00;;;9.00
35582;BMP180;21687;48.900;9.188;2023-04-01T14:01:15;97183.00;;;8.90
35582;BMP180;21687;48.900;9.188;2023-04-01T14:07:28;97190.00;;;8.70
35582;BMP180;21687;48.900;9.188;2023-04-01T14:23:43;97189.00;;;9.20
35582;BMP180;21687;48.900;9.188;2023-04-01T14:29:18;97205.00;;;9.50
35582;BMP180;21687;48.900;9.188;2023-04-01T14:37:58;97209.00;;;9.60
35582;BMP180;21687;48.900;9.188;2023-04-01T14:40:55;97212.00;;;9.60
35582;BMP180;21687;48.900;9.188;2023-04-01T14:46:30;97213.00;;;9.60
35582;BMP180;21687;48.900;9.188;2023-04-01T14:51:42;97219.00;;;9.70
35582;BMP180;21687;48.900;9.188;2023-04-01T14:56:39;97219.00;;;9.80
35582;BMP180;21687;48.900;9.188;2023-04-01T14:59:27;97200.00;;;10.00
35582;BMP180;21687;48.900;9.188;2023-04-01T15:05:30;97213.00;;;10.20
35582;BMP180;21687;48.900;9.188;2023-04-01T15:10:49;97228.00;;;10.60
35582;BMP180;21687;48.900;9.188;2023-04-01T15:16:55;97232.00;;;10.60
35582;BMP180;21687;48.900;9.188;2023-04-01T15:25:26;97217.00;;;10.40
35582;BMP180;21687;48.900;9.188;2023-04-01T15:28:04;97221.00;;;10.40
35582;BMP180;21687;48.900;9.188;2023-04-01T15:38:51;97236.00;;;10.60
35582;BMP180;21687;48.900;9.188;2023-04-01T15:41:51;97241.00;;;10.50
35582;BMP180;21687;48.900;9.188;2023-04-01T15:50:19;97239.00;;;10.20
35582;BMP180;21687;48.900;9.188;2023-04-01T15:53:27;97256.00;;;10.20
35582;BMP180;21687;48.900;9.188;2023-04-01T16:10:57;97259.00;;;10.00
35582;BMP180;21687;48.900;9.188;2023-04-01T16:21:59;97258.00;;;9.90
35582;BMP180;21687;48.900;9.188;2023-04-01T16:24:43;97269.00;;;9.90
35582;BMP180;21687;48.900;9.188;2023-04-01T16:27:41;97266.00;;;9.90
35582;BMP180;21687;48.900;9.188;2023-04-01T16:33:21;97274.00;;;9.80
35582;BMP180;21687;48.900;9.188;2023-04-01T16:41:26;97292.00;;;9.80
35582;BMP180;21687;48.900;9.188;2023-04-01T16:44:25;97291.00;;;9.80
35582;BMP180;21687;48.900;9.188;2023-04-01T16:47:07;97292.00;;;9.80
35582;BMP180;21687;48.900;9.188;2023-04-01T16:54:39;97286.00;;;9.80
35582;BMP180;21687;48.900;9.188;2023-04-01T16:57:14;97285.00;;;9.80
35582;BMP180;21687;48.900;9.188;2023-04-01T17:08:17;97287.00;;;9.70
35582;BMP180;21687;48.900;9.188;2023-04-01T17:11:18;97288.00;;;9.70
35582;BMP180;21687;48.900;9.188;2023-04-01T17:14:09;97296.00;;;9.60
35582;BMP180;21687;48.900;9.188;2023-04-01T17:19:25;97306.00;;;9.60
35582;BMP180;21687;48.900;9.188;2023-04-01T17:22:31;97301.00;;;9.50
35582;BMP180;21687;48.900;9.188;2023-04-01T17:28:10;97304.00;;;9.50
35582;BMP180;21687;48.900;9.188;2023-04-01T17:33:49;97324.00;;;9.50
35582;BMP180;21687;48.900;9.188;2023-04-01T17:39:04;97324.00;;;9.40
35582;BMP180;21687;48.900;9.188;2023-04-01T17:44:43;97344.00;;;9.50
35582;BMP180;21687;48.900;9.188;2023-04-01T17:55:47;97339.00;;;9.40
35582;BMP180;21687;48.900;9.188;2023-04-01T17:58:28;97351.00;;;9.40
35582;BMP180;21687;48.900;9.188;2023-04-01T18:15:12;97362.00;;;9.10
35582;BMP180;21687;48.900;9.188;2023-04-01T18:17:52;97360.00;;;9.10
35582;BMP180;21687;48.900;9.188;2023-04-01T18:23:04;97372.00;;;8.90
35582;BMP180;21687;48.900;9.188;2023-04-01T18:25:43;97373.00;;;8.90
35582;BMP180;21687;48.900;9.188;2023-04-01T18:28:30;97380.00;;;8.80
35582;BMP180;21687;48.900;9.188;2023-04-01T18:31:20;97372.00;;;8.70
35582;BMP180;21687;48.900;9.188;2023-04-01T18:33:58;97390.00;;;8.60
35582;BMP180;21687;48.900;9.188;2023-04-01T18:36:51;97394.00;;;8.60
35582;BMP180;21687;48.900;9.188;2023-04-01T18:39:32;97383.00;;;8.60
35582;BMP180;21687;48.900;9.188;2023-04-01T18:48:30;97409.00;;;8.60
35582;BMP180;21687;48.900;9.188;2023-04-01T18:50:56;97409.00;;;8.50
35582;BMP180;21687;48.900;9.188;2023-04-01T18:55:59;97421.00;;;8.50
35582;BMP180;21687;48.900;9.188;2023-04-01T18:58:49;97412.00;;;8.50
35582;BMP180;21687;48.900;9.188;2023-04-01T19:01:42;97430.00;;;8.50
35582;BMP180;21687;48.900;9.188;2023-04-01T19:04:22;97422.00;;;8.50
35582;BMP180;21687;48.900;9.188;2023-04-01T19:06:55;97419.00;;;8.30
35582;BMP180;21687;48.900;9.188;2023-04-01T19:14:46;97427.00;;;7.90
35582;BMP180;21687;48.900;9.188;2023-04-01T19:17:21;97432.00;;;7.80
35582;BMP180;21687;48.900;9.188;2023-04-01T19:20:04;97428.00;;;7.70
35582;BMP180;21687;48.900;9.188;2023-04-01T19:23:02;97424.00;;;7.50
35582;BMP180;21687;48.900;9.188;2023-04-01T19:25:51;97420.00;;;7.50
35582;BMP180;21687;48.900;9.188;2023-04-01T19:31:08;97424.00;;;7.30
35582;BMP180;21687;48.900;9.188;2023-04-01T19:33:54;97431.00;;;7.30
35582;BMP180;21687;48.900;9.188;2023-04-01T19:41:50;97424.00;;;7.10
35582;BMP180;21687;48.900;9.188;2023-04-01T19:44:41;97424.00;;;7.10
35582;BMP180;21687;48.900;9.188;2023-04-01T19:50:38;97424.00;;;6.80
35582;BMP180;21687;48.900;9.188;2023-04-01T19:53:31;97426.00;;;6.80
35582;BMP180;21687;48.900;9.188;2023-04-01T19:56:15;97432.00;;;6.70
35582;BMP180;21687;48.900;9.188;2023-04-01T19:58:56;97437.00;;;6.70
35582;BMP180;21687;48.900;9.188;2023-04-01T20:01:34;97434.00;;;6.70
35582;BMP180;21687;48.900;9.188;2023-04-01T20:07:07;97450.00;;;6.70
35582;BMP180;21687;48.900;9.188;2023-04-01T20:09:45;97453.00;;;6.70
35582;BMP180;21687;48.900;9.188;2023-04-01T20:12:49;97453.00;;;6.90
35582;BMP180;21687;48.900;9.188;2023-04-01T20:15:44;97460.00;;;7.00
35582;BMP180;21687;48.900;9.188;2023-04-01T20:18:24;97465.00;;;7.10
35582;BMP180;21687;48.900;9.188;2023-04-01T20:23:54;97469.00;;;7.30
35582;BMP180;21687;48.900;9.188;2023-04-01T20:26:26;97473.00;;;7.40
35582;BMP180;21687;48.900;9.188;2023-04-01T20:31:43;97476.00;;;7.50
35582;BMP180;21687;48.900;9.188;2023-04-01T20:34:39;97481.00;;;7.60
35582;BMP180;21687;48.900;9.188;2023-04-01T20:40:32;97480.00;;;7.60
35582;BMP180;21687;48.900;9.188;2023-04-01T20:43:23;97486.00;;;7.70
35582;BMP180;21687;48.900;9.188;2023-04-01T20:46:20;97489.00;;;7.70
35582;BMP180;21687;48.900;9.188;2023-04-01T20:51:52;97488.00;;;7.80
35582;BMP180;21687;48.900;9.188;2023-04-01T20:57:31;97487.00;;;7.90
35582;BMP180;21687;48.900;9.188;2023-04-01T21:11:07;97495.00;;;7.90
35582;BMP180;21687;48.900;9.188;2023-04-01T21:16:47;97510.00;;;7.90
35582;BMP180;21687;48.900;9.188;2023-04-01T21:22:26;97511.00;;;7.90
35582;BMP180;21687;48.900;9.188;2023-04-01T21:31:00;97514.00;;;7.80
35582;BMP180;21687;48.900;9.188;2023-04-01T21:44:58;97532.00;;;7.90
35582;BMP180;21687;48.900;9.188;2023-04-01T21:48:08;97546.00;;;7.90
35582;BMP180;21687;48.900;9.188;2023-04-01T21:53:21;97546.00;;;7.90
35582;BMP180;21687;48.900;9.188;2023-04-01T22:07:18;97545.00;;;8.00
35582;BMP180;21687;48.900;9.188;2023-04-01T22:13:10;97557.00;;;7.90
35582;BMP180;21687;48.900;9.188;2023-04-01T22:16:20;97546.00;;;8.00
35582;BMP180;21687;48.900;9.188;2023-04-01T22:21:38;97544.00;;;8.00
35582;BMP180;21687;48.900;9.188;2023-04-01T22:29:17;97560.00;;;8.00
35582;BMP180;21687;48.900;9.188;2023-04-01T22:31:55;97562.00;;;8.10
35582;BMP180;21687;48.900;9.188;2023-04-01T22:34:39;97561.00;;;8.00
35582;BMP180;21687;48.900;9.188;2023-04-01T22:42:47;97562.00;;;8.00
35582;BMP180;21687;48.900;9.188;2023-04-01T22:48:18;97562.00;;;8.00
35582;BMP180;21687;48.900;9.188;2023-04-01T22:50:56;97567.00;;;8.00
35582;BMP180;21687;48.900;9.188;2023-04-01T22:53:43;97571.00;;;8.00
35582;BMP180;21687;48.900;9.188;2023-04-01T22:56:22;97574.00;;;8.00
35582;BMP180;21687;48.900;9.188;2023-04-01T22:59:06;97574.00;;;8.00
35582;BMP180;21687;48.900;9.188;2023-04-01T23:01:39;97574.00;;;8.00
35582;BMP180;21687;48.900;9.188;2023-04-01T23:04:11;97579.00;;;8.00
35582;BMP180;21687;48.900;9.188;2023-04-01T23:06:46;97579.00;;;8.00
35582;BMP180;21687;48.900;9.188;2023-04-01T23:09:23;97593.00;;;8.00
35582;BMP180;21687;48.900;9.188;2023-04-01T23:12:01;97584.00;;;8.10
35582;BMP180;21687;48.900;9.188;2023-04-01T23:14:46;97591.00;;;8.00
35582;BMP180;21687;48.900;9.188;2023-04-01T23:17:19;97593.00;;;8.00
35582;BMP180;21687;48.900;9.188;2023-04-01T23:20:12;97585.00;;;8.00
35582;BMP180;21687;48.900;9.188;2023-04-01T23:28:48;97605.00;;;8.00
35582;BMP180;21687;48.900;9.188;2023-04-01T23:31:34;97611.00;;;8.00
35582;BMP180;21687;48.900;9.188;2023-04-01T23:34:20;97598.00;;;8.00
35582;BMP180;21687;48.900;9.188;2023-04-01T23:36:52;97609.00;;;8.00
35582;BMP180;21687;48.900;9.188;2023-04-01T23:44:32;97613.00;;;7.90
35582;BMP180;21687;48.900;9.188;2023-04-01T23:46:59;97614.00;;;7.90
35582;BMP180;21687;48.900;9.188;2023-04-01T23:49:48;97613.00;;;7.90
35582;BMP180;21687;48.900;9.188;2023-04-01T23:55:08;97612.00;;;8.00
35582;BMP180;21687;48.900;9.188;2023-04-01T23:57:38;97615.00;;;8.00
